createdAt,value
2019-04-11T00:00:09.047Z,33.18
2019-04-11T00:01:08.047Z,35.28
2019-04-11T00:01:58.814Z,34.73
2019-04-11T00:02:49.815Z,36.90
2019-04-11T00:03:41.750Z,34.50
2019-04-11T00:04:32.310Z,30.12
2019-04-11T00:05:22.984Z,29.65
2019-04-11T00:06:12.709Z,30.77
2019-04-11T00:07:03.747Z,32.30
2019-04-11T00:07:54.307Z,34.43
2019-04-11T00:08:44.662Z,30.68
2019-04-11T00:09:35.215Z,32.98
2019-04-11T00:10:27.662Z,30.27
2019-04-11T00:11:17.984Z,30.95
2019-04-11T00:12:10.419Z,30.75
2019-04-11T00:13:01.247Z,29.70
2019-04-11T00:13:51.540Z,28.83
2019-04-11T00:14:42.166Z,28.15
2019-04-11T00:15:34.833Z,30.45
2019-04-11T00:16:25.453Z,31.60
2019-04-11T00:17:15.505Z,29.48
2019-04-11T00:18:06.168Z,32.17
2019-04-11T00:18:56.944Z,31.75
2019-04-11T00:19:47.484Z,30.00
2019-04-11T00:20:37.488Z,29.80
2019-04-11T00:21:28.765Z,28.77
2019-04-11T00:22:19.463Z,30.75
2019-04-11T00:23:08.760Z,30.25
2019-04-11T00:23:59.156Z,30.57
2019-04-11T00:24:51.269Z,29.07
2019-04-11T00:25:44.102Z,30.05
2019-04-11T00:26:33.839Z,29.20
2019-04-11T00:27:28.859Z,28.15
2019-04-11T00:28:25.799Z,31.40
2019-04-11T00:29:16.405Z,30.05
2019-04-11T00:30:08.092Z,31.77
2019-04-11T00:30:58.808Z,29.87
2019-04-11T00:31:49.577Z,30.45
2019-04-11T00:32:39.312Z,30.40
2019-04-11T00:33:30.023Z,31.02
2019-04-11T00:34:20.648Z,32.80
2019-04-11T00:35:11.230Z,31.45
2019-04-11T00:36:04.280Z,30.10
2019-04-11T00:36:58.879Z,31.37
2019-04-11T00:37:49.606Z,31.87
2019-04-11T00:38:40.316Z,30.82
2019-04-11T00:39:30.615Z,29.02
2019-04-11T00:40:21.551Z,29.67
2019-04-11T00:41:12.071Z,29.80
2019-04-11T00:42:04.109Z,29.48
2019-04-11T00:42:54.989Z,28.65
2019-04-11T00:43:46.907Z,32.63
2019-04-11T00:44:37.645Z,30.62
2019-04-11T00:45:28.744Z,29.92
2019-04-11T00:46:18.997Z,29.35
2019-04-11T00:47:11.004Z,29.50
2019-04-11T00:48:01.682Z,31.27
2019-04-11T00:48:52.894Z,31.00
2019-04-11T00:49:46.445Z,30.37
2019-04-11T00:50:37.257Z,27.90
2019-04-11T00:51:27.745Z,30.50
2019-04-11T00:52:18.155Z,30.88
2019-04-11T00:53:09.777Z,28.67
2019-04-11T00:54:00.599Z,28.35
2019-04-11T00:54:51.175Z,27.42
2019-04-11T00:55:41.876Z,27.82
2019-04-11T00:56:31.151Z,28.42
2019-04-11T00:57:23.057Z,27.85
2019-04-11T00:58:13.752Z,29.50
2019-04-11T00:59:03.430Z,29.80
2019-04-11T00:59:56.426Z,29.40
2019-04-11T01:00:47.146Z,31.02
2019-04-11T01:01:36.952Z,28.30
2019-04-11T01:02:27.824Z,29.57
2019-04-11T01:03:18.664Z,28.73
2019-04-11T01:04:09.653Z,28.35
2019-04-11T01:04:59.461Z,29.25
2019-04-11T01:05:50.016Z,27.00
2019-04-11T01:06:41.090Z,27.58
2019-04-11T01:07:33.167Z,29.90
2019-04-11T01:08:24.203Z,30.05
2019-04-11T01:09:16.136Z,28.23
2019-04-11T01:10:07.795Z,29.95
2019-04-11T01:11:00.477Z,28.27
2019-04-11T01:11:52.206Z,31.02
2019-04-11T01:12:44.679Z,27.62
2019-04-11T01:13:45.596Z,28.38
2019-04-11T01:14:25.830Z,30.60
2019-04-11T01:15:19.545Z,29.75
2019-04-11T01:16:18.626Z,29.60
2019-04-11T01:17:10.799Z,30.72
2019-04-11T01:18:01.478Z,28.77
2019-04-11T01:18:52.046Z,28.23
2019-04-11T01:19:42.982Z,31.45
2019-04-11T01:20:33.422Z,29.30
2019-04-11T01:21:24.277Z,28.98
2019-04-11T01:22:14.070Z,30.52
2019-04-11T01:23:06.841Z,28.57
2019-04-11T01:23:57.567Z,30.15
2019-04-11T01:24:48.163Z,29.77
2019-04-11T01:25:39.422Z,28.87
2019-04-11T01:26:30.036Z,27.98
2019-04-11T01:27:21.625Z,26.97
2019-04-11T01:28:12.211Z,27.27
2019-04-11T01:29:02.913Z,28.75
2019-04-11T01:29:54.424Z,28.23
2019-04-11T01:30:52.372Z,27.85
2019-04-11T01:31:44.221Z,26.87
2019-04-11T01:32:34.894Z,28.57
2019-04-11T01:33:25.392Z,28.90
2019-04-11T01:34:16.252Z,28.27
2019-04-11T01:35:06.894Z,28.38
2019-04-11T01:35:57.518Z,28.35
2019-04-11T01:36:47.583Z,26.35
2019-04-11T01:37:38.039Z,29.10
2019-04-11T01:38:28.814Z,28.57
2019-04-11T01:39:38.015Z,28.45
2019-04-11T01:40:29.892Z,26.48
2019-04-11T01:41:20.990Z,27.32
2019-04-11T01:42:11.264Z,29.05
2019-04-11T01:43:01.910Z,27.37
2019-04-11T01:43:56.273Z,28.25
2019-04-11T01:44:43.027Z,26.02
2019-04-11T01:45:33.705Z,26.87
2019-04-11T01:46:23.027Z,28.17
2019-04-11T01:47:16.559Z,28.50
2019-04-11T01:48:17.887Z,27.65
2019-04-11T01:49:16.389Z,27.67
2019-04-11T01:50:08.435Z,26.60
2019-04-11T01:50:59.093Z,27.48
2019-04-11T01:51:49.784Z,29.18
2019-04-11T01:52:39.872Z,28.45
2019-04-11T01:53:30.965Z,27.60
2019-04-11T01:54:21.668Z,29.12
2019-04-11T01:55:12.299Z,26.80
2019-04-11T01:56:03.097Z,26.05
2019-04-11T01:56:53.741Z,27.17
2019-04-11T01:57:44.870Z,28.40
2019-04-11T01:58:35.193Z,27.52
2019-04-11T01:59:25.240Z,27.20
2019-04-11T02:00:30.167Z,26.42
2019-04-11T02:01:41.064Z,26.35
2019-04-11T02:02:48.122Z,26.45
2019-04-11T02:03:57.372Z,22.82
2019-04-11T02:05:01.316Z,25.70
2019-04-11T02:05:52.141Z,23.98
2019-04-11T02:06:43.521Z,25.37
2019-04-11T02:07:34.351Z,27.20
2019-04-11T02:08:25.055Z,27.10
2019-04-11T02:09:15.919Z,26.00
2019-04-11T02:10:06.768Z,26.60
2019-04-11T02:10:57.472Z,26.48
2019-04-11T02:11:48.040Z,27.02
2019-04-11T02:12:39.388Z,26.68
2019-04-11T02:13:30.023Z,24.25
2019-04-11T02:14:21.060Z,25.43
2019-04-11T02:15:10.337Z,25.75
2019-04-11T02:16:01.467Z,26.80
2019-04-11T02:16:53.666Z,24.43
2019-04-11T02:17:43.747Z,26.30
2019-04-11T02:18:35.254Z,26.87
2019-04-11T02:19:25.917Z,26.25
2019-04-11T02:20:16.921Z,26.35
2019-04-11T02:21:07.554Z,25.00
2019-04-11T02:22:11.926Z,27.52
2019-04-11T02:23:23.288Z,26.75
2019-04-11T02:24:24.102Z,25.52
2019-04-11T02:25:34.100Z,25.32
2019-04-11T02:26:32.112Z,24.45
2019-04-11T02:27:27.419Z,24.80
2019-04-11T02:28:20.219Z,25.30
2019-04-11T02:29:09.571Z,25.05
2019-04-11T02:30:01.154Z,24.12
2019-04-11T02:30:54.172Z,22.90
2019-04-11T02:31:44.402Z,24.67
2019-04-11T02:32:34.438Z,25.75
2019-04-11T02:33:26.157Z,23.87
2019-04-11T02:34:16.020Z,28.55
2019-04-11T02:35:07.824Z,28.50
2019-04-11T02:35:58.109Z,27.37
2019-04-11T02:36:51.296Z,25.95
2019-04-11T02:37:42.050Z,25.00
2019-04-11T02:38:32.432Z,24.55
2019-04-11T02:39:22.930Z,22.60
2019-04-11T02:40:13.522Z,22.30
2019-04-11T02:41:03.518Z,23.83
2019-04-11T02:41:54.882Z,25.92
2019-04-11T02:42:45.651Z,25.52
2019-04-11T02:43:36.515Z,27.45
2019-04-11T02:44:42.411Z,26.65
2019-04-11T02:45:30.840Z,24.90
2019-04-11T02:46:17.606Z,23.27
2019-04-11T02:47:05.247Z,25.05
2019-04-11T02:47:50.637Z,24.80
2019-04-11T02:48:40.655Z,23.75
2019-04-11T02:49:31.166Z,24.30
2019-04-11T02:50:21.947Z,22.70
2019-04-11T02:51:12.474Z,24.77
2019-04-11T02:52:02.680Z,23.67
2019-04-11T02:52:52.978Z,25.80
2019-04-11T02:53:45.169Z,23.85
2019-04-11T02:54:34.289Z,23.10
2019-04-11T02:55:25.228Z,23.02
2019-04-11T02:56:14.918Z,23.73
2019-04-11T02:57:05.802Z,24.75
2019-04-11T02:57:57.640Z,24.37
2019-04-11T02:58:48.258Z,24.92
2019-04-11T02:59:38.949Z,25.20
2019-04-11T03:00:30.855Z,24.95
2019-04-11T03:01:20.039Z,25.23
2019-04-11T03:02:11.079Z,25.52
2019-04-11T03:03:01.565Z,23.98
2019-04-11T03:03:51.963Z,22.87
2019-04-11T03:04:42.424Z,26.55
2019-04-11T03:05:34.436Z,26.62
2019-04-11T03:06:23.499Z,25.85
2019-04-11T03:07:14.577Z,26.77
2019-04-11T03:08:09.228Z,25.37
2019-04-11T03:08:57.352Z,24.32
2019-04-11T03:09:48.824Z,23.80
2019-04-11T03:10:38.776Z,27.52
2019-04-11T03:11:30.363Z,26.95
2019-04-11T03:12:21.669Z,24.70
2019-04-11T03:13:12.672Z,25.02
2019-04-11T03:14:03.932Z,24.23
2019-04-11T03:15:10.837Z,26.93
2019-04-11T03:16:02.119Z,25.37
2019-04-11T03:16:46.209Z,25.08
2019-04-11T03:17:31.584Z,28.23
2019-04-11T03:18:35.567Z,26.68
2019-04-11T03:19:24.063Z,26.35
2019-04-11T03:20:13.066Z,27.87
2019-04-11T03:20:56.700Z,25.75
2019-04-11T03:21:43.880Z,23.35
2019-04-11T03:22:32.180Z,25.08
2019-04-11T03:23:23.538Z,27.50
2019-04-11T03:24:13.282Z,26.33
2019-04-11T03:25:06.010Z,25.15
2019-04-11T03:25:56.706Z,22.90
2019-04-11T03:26:46.367Z,25.65
2019-04-11T03:27:37.814Z,26.70
2019-04-11T03:28:31.285Z,23.77
2019-04-11T03:29:19.878Z,24.87
2019-04-11T03:30:15.016Z,23.90
2019-04-11T03:31:32.672Z,23.60
2019-04-11T03:32:34.622Z,26.30
2019-04-11T03:35:09.150Z,26.12
2019-04-11T03:36:08.730Z,25.35
2019-04-11T03:37:01.174Z,24.45
2019-04-11T03:38:05.873Z,24.12
2019-04-11T03:39:01.747Z,25.12
2019-04-11T03:39:52.698Z,24.07
2019-04-11T03:40:38.673Z,26.45
2019-04-11T03:41:23.544Z,26.12
2019-04-11T03:42:18.657Z,26.25
2019-04-11T03:43:04.226Z,25.65
2019-04-11T03:43:50.866Z,25.08
2019-04-11T03:44:38.364Z,23.35
2019-04-11T03:45:46.726Z,22.37
2019-04-11T03:46:30.835Z,23.02
2019-04-11T03:47:16.674Z,22.98
2019-04-11T03:48:10.963Z,24.15
2019-04-11T03:48:55.691Z,24.57
2019-04-11T03:49:44.741Z,22.58
2019-04-11T03:50:30.610Z,23.87
2019-04-11T03:51:18.732Z,25.23
2019-04-11T03:52:10.586Z,23.62
2019-04-11T03:53:01.411Z,24.65
2019-04-11T03:53:51.678Z,25.02
2019-04-11T03:54:49.449Z,24.92
2019-04-11T03:55:39.052Z,24.35
2019-04-11T03:56:30.427Z,23.98
2019-04-11T03:57:21.602Z,24.50
2019-04-11T03:58:13.108Z,23.30
2019-04-11T03:59:04.074Z,23.05
2019-04-11T03:59:54.520Z,22.85
2019-04-11T04:00:46.513Z,26.73
2019-04-11T04:01:37.982Z,24.23
2019-04-11T04:02:26.628Z,23.52
2019-04-11T04:03:18.235Z,26.35
2019-04-11T04:04:08.942Z,23.70
2019-04-11T04:04:59.220Z,23.40
2019-04-11T04:05:48.807Z,23.67
2019-04-11T04:06:39.499Z,23.47
2019-04-11T04:07:32.005Z,25.50
2019-04-11T04:08:22.444Z,26.05
2019-04-11T04:09:13.072Z,25.37
2019-04-11T04:10:03.558Z,26.50
2019-04-11T04:11:06.074Z,24.10
2019-04-11T04:11:56.858Z,24.98
2019-04-11T04:12:47.521Z,25.32
2019-04-11T04:13:38.984Z,25.77
2019-04-11T04:14:34.382Z,25.95
2019-04-11T04:15:53.806Z,25.15
2019-04-11T04:16:46.973Z,24.18
2019-04-11T04:18:00.106Z,23.98
2019-04-11T04:19:01.564Z,25.25
2019-04-11T04:20:10.930Z,22.55
2019-04-11T04:21:22.665Z,21.68
2019-04-11T04:22:22.153Z,21.97
2019-04-11T04:23:19.100Z,23.25
2019-04-11T04:24:34.210Z,23.62
2019-04-11T04:25:21.373Z,24.02
2019-04-11T04:26:12.329Z,23.65
2019-04-11T04:27:04.279Z,23.67
2019-04-11T04:27:56.899Z,23.55
2019-04-11T04:28:47.659Z,23.35
2019-04-11T04:29:41.135Z,24.07
2019-04-11T04:30:30.002Z,23.87
2019-04-11T04:31:22.245Z,24.95
2019-04-11T04:32:12.068Z,23.27
2019-04-11T04:33:02.915Z,28.57
2019-04-11T04:33:53.404Z,27.27
2019-04-11T04:34:44.315Z,24.95
2019-04-11T04:35:36.357Z,24.85
2019-04-11T04:36:27.285Z,24.98
2019-04-11T04:37:16.249Z,25.85
2019-04-11T04:38:07.540Z,25.95
2019-04-11T04:38:59.281Z,23.22
2019-04-11T04:39:51.826Z,24.95
2019-04-11T04:40:57.047Z,24.95
2019-04-11T04:41:39.201Z,25.65
2019-04-11T04:42:31.506Z,23.47
2019-04-11T04:43:14.640Z,27.20
2019-04-11T04:44:06.464Z,26.23
2019-04-11T04:44:58.285Z,26.48
2019-04-11T04:46:04.937Z,25.80
2019-04-11T04:46:54.789Z,25.65
2019-04-11T04:47:39.752Z,24.45
2019-04-11T04:48:24.319Z,25.02
2019-04-11T04:49:13.678Z,24.80
2019-04-11T04:50:06.165Z,26.20
2019-04-11T04:50:57.628Z,24.75
2019-04-11T04:51:47.792Z,24.07
2019-04-11T04:52:38.180Z,27.15
2019-04-11T04:53:28.630Z,23.67
2019-04-11T04:54:22.031Z,26.23
2019-04-11T04:55:12.435Z,23.92
2019-04-11T04:56:02.657Z,24.67
2019-04-11T04:56:54.497Z,24.90
2019-04-11T04:57:44.951Z,26.15
2019-04-11T04:58:35.358Z,23.90
2019-04-11T04:59:25.385Z,25.77
2019-04-11T05:00:18.668Z,26.15
2019-04-11T05:01:07.154Z,28.07
2019-04-11T05:01:57.234Z,27.42
2019-04-11T05:02:48.011Z,26.55
2019-04-11T05:03:40.422Z,27.07
2019-04-11T05:04:29.831Z,23.70
2019-04-11T05:05:21.984Z,25.97
2019-04-11T05:06:12.018Z,24.43
2019-04-11T05:07:03.268Z,26.07
2019-04-11T05:07:54.221Z,23.25
2019-04-11T05:08:47.163Z,25.48
2019-04-11T05:09:38.538Z,26.02
2019-04-11T05:10:30.608Z,22.82
2019-04-11T05:11:23.151Z,22.95
2019-04-11T05:12:11.983Z,25.23
2019-04-11T05:13:03.548Z,27.58
2019-04-11T05:13:54.485Z,24.65
2019-04-11T05:14:47.762Z,22.52
2019-04-11T05:15:36.895Z,23.98
2019-04-11T05:16:27.830Z,24.65
2019-04-11T05:17:19.221Z,24.82
2019-04-11T05:18:10.897Z,26.80
2019-04-11T05:18:59.485Z,27.07
2019-04-11T05:19:54.410Z,25.02
2019-04-11T05:20:46.343Z,26.12
2019-04-11T05:21:38.891Z,25.45
2019-04-11T05:22:29.352Z,26.75
2019-04-11T05:23:21.444Z,22.75
2019-04-11T05:24:12.572Z,27.10
2019-04-11T05:25:03.847Z,28.17
2019-04-11T05:25:53.703Z,26.90
2019-04-11T05:26:44.487Z,22.87
2019-04-11T05:27:35.825Z,28.40
2019-04-11T05:28:27.614Z,27.65
2019-04-11T05:29:17.423Z,25.52
2019-04-11T05:30:08.387Z,25.50
2019-04-11T05:30:58.874Z,23.18
2019-04-11T05:31:51.161Z,25.70
2019-04-11T05:32:41.654Z,27.22
2019-04-11T05:33:32.692Z,26.23
2019-04-11T05:34:23.844Z,23.80
2019-04-11T05:35:14.641Z,26.87
2019-04-11T05:36:06.018Z,26.00
2019-04-11T05:36:57.626Z,26.42
2019-04-11T05:37:48.891Z,28.45
2019-04-11T05:38:40.083Z,29.18
2019-04-11T05:39:31.720Z,26.27
2019-04-11T05:40:22.291Z,24.75
2019-04-11T05:41:13.900Z,25.30
2019-04-11T05:42:05.103Z,23.85
2019-04-11T05:42:55.707Z,22.37
2019-04-11T05:43:47.329Z,24.98
2019-04-11T05:44:38.296Z,27.93
2019-04-11T05:45:28.237Z,24.47
2019-04-11T05:46:31.114Z,27.35
2019-04-11T05:47:14.538Z,24.80
2019-04-11T05:48:01.510Z,24.47
2019-04-11T05:49:07.184Z,27.35
2019-04-11T05:50:12.916Z,26.65
2019-04-11T05:51:00.430Z,25.70
2019-04-11T05:52:04.069Z,25.02
2019-04-11T05:52:54.815Z,23.52
2019-04-11T05:53:48.587Z,25.37
2019-04-11T05:54:43.136Z,23.50
2019-04-11T05:55:41.525Z,24.75
2019-04-11T05:56:29.969Z,26.52
2019-04-11T05:57:23.790Z,26.23
2019-04-11T05:58:14.294Z,25.80
2019-04-11T05:59:17.208Z,25.23
2019-04-11T06:00:09.707Z,26.82
2019-04-11T06:01:05.407Z,25.55
2019-04-11T06:02:04.367Z,23.45
2019-04-11T06:02:57.530Z,24.02
2019-04-11T06:03:49.278Z,26.55
2019-04-11T06:04:42.841Z,26.05
2019-04-11T06:05:40.852Z,27.10
2019-04-11T06:06:40.171Z,25.20
2019-04-11T06:07:40.055Z,25.43
2019-04-11T06:08:30.270Z,25.15
2019-04-11T06:09:23.039Z,26.95
2019-04-11T06:10:19.848Z,25.60
2019-04-11T06:11:16.502Z,22.60
2019-04-11T06:12:21.684Z,23.18
2019-04-11T06:13:18.319Z,25.72
2019-04-11T06:14:39.752Z,23.40
2019-04-11T06:15:36.292Z,25.15
2019-04-11T06:16:36.124Z,25.17
2019-04-11T06:17:18.501Z,26.10
2019-04-11T06:18:27.000Z,23.57
2019-04-11T06:19:22.914Z,21.52
2019-04-11T06:20:45.212Z,21.85
2019-04-11T06:21:38.059Z,22.93
2019-04-11T06:22:29.675Z,22.55
2019-04-11T06:23:54.260Z,22.07
2019-04-11T06:25:11.242Z,22.85
2019-04-11T06:26:11.738Z,20.25
2019-04-11T06:27:14.238Z,23.67
2019-04-11T06:28:11.800Z,22.27
2019-04-11T06:29:17.163Z,24.82
2019-04-11T06:30:18.244Z,23.90
2019-04-11T06:31:31.898Z,23.70
2019-04-11T06:32:41.248Z,23.50
2019-04-11T06:33:37.901Z,21.25
2019-04-11T06:34:30.500Z,21.50
2019-04-11T06:35:37.837Z,24.27
2019-04-11T06:36:48.260Z,24.82
2019-04-11T06:37:59.619Z,24.27
2019-04-11T06:38:58.696Z,22.42
2019-04-11T06:39:59.756Z,24.00
2019-04-11T06:40:56.363Z,24.15
2019-04-11T06:42:13.063Z,23.65
2019-04-11T06:43:21.878Z,23.77
2019-04-11T06:44:35.356Z,22.85
2019-04-11T06:45:54.442Z,21.57
2019-04-11T06:47:08.221Z,23.50
2019-04-11T06:48:17.806Z,20.68
2019-04-11T06:49:26.932Z,20.48
2019-04-11T06:50:46.972Z,19.45
2019-04-11T06:51:42.842Z,20.32
2019-04-11T06:52:34.953Z,21.52
2019-04-11T06:53:32.170Z,21.97
2019-04-11T06:54:33.221Z,21.17
2019-04-11T06:55:42.677Z,19.95
2019-04-11T06:56:39.299Z,20.55
2019-04-11T06:57:32.017Z,20.50
2019-04-11T06:58:29.752Z,23.02
2019-04-11T06:59:36.698Z,20.77
2019-04-11T07:00:29.246Z,21.00
2019-04-11T07:01:25.763Z,19.70
2019-04-11T07:02:19.632Z,22.22
2019-04-11T07:03:17.942Z,22.07
2019-04-11T07:04:17.872Z,20.40
2019-04-11T07:05:09.052Z,20.45
2019-04-11T07:06:01.439Z,22.48
2019-04-11T07:06:54.050Z,23.18
2019-04-11T07:07:49.472Z,21.80
2019-04-11T07:08:49.049Z,21.27
2019-04-11T07:10:02.088Z,19.65
2019-04-11T07:10:56.494Z,20.27
2019-04-11T07:11:50.796Z,21.40
2019-04-11T07:12:57.276Z,20.43
2019-04-11T07:13:58.642Z,21.30
2019-04-11T07:15:07.523Z,20.77
2019-04-11T07:15:58.302Z,20.20
2019-04-11T07:17:09.550Z,21.33
2019-04-11T07:18:16.794Z,20.77
2019-04-11T07:19:39.423Z,21.65
2019-04-11T07:21:02.900Z,21.25
2019-04-11T07:21:53.205Z,20.77
2019-04-11T07:23:02.186Z,20.05
2019-04-11T07:24:11.761Z,19.92
2019-04-11T07:25:20.266Z,21.60
2019-04-11T07:26:37.332Z,22.93
2019-04-11T07:27:28.154Z,23.77
2019-04-11T07:28:37.454Z,22.37
2019-04-11T07:30:00.303Z,23.70
2019-04-11T07:31:10.545Z,23.38
2019-04-11T07:32:06.958Z,19.57
2019-04-11T07:33:08.002Z,21.82
2019-04-11T07:34:17.535Z,22.22
2019-04-11T07:35:27.701Z,22.35
2019-04-11T07:36:36.087Z,20.12
2019-04-11T07:37:38.501Z,21.65
2019-04-11T07:38:36.510Z,21.10
2019-04-11T07:39:44.975Z,21.60
2019-04-11T07:40:54.527Z,22.60
2019-04-11T07:42:02.289Z,22.77
2019-04-11T07:43:19.699Z,20.82
2019-04-11T07:44:10.953Z,20.92
2019-04-11T07:45:04.211Z,21.20
2019-04-11T07:46:24.613Z,19.65
2019-04-11T07:47:26.330Z,21.60
2019-04-11T07:48:17.444Z,21.52
2019-04-11T07:49:08.648Z,22.02
2019-04-11T07:50:00.665Z,23.62
2019-04-11T07:50:54.145Z,21.42
2019-04-11T07:51:46.903Z,22.10
2019-04-11T07:52:46.935Z,21.10
2019-04-11T07:53:40.009Z,21.62
2019-04-11T07:54:30.731Z,24.30
2019-04-11T07:55:23.666Z,23.05
2019-04-11T07:56:30.106Z,22.05
2019-04-11T07:57:28.999Z,23.27
2019-04-11T07:58:25.118Z,23.75
2019-04-11T07:59:33.885Z,23.52
2019-04-11T08:00:44.190Z,23.75
2019-04-11T08:01:54.976Z,21.50
2019-04-11T08:03:04.214Z,20.08
2019-04-11T08:04:15.590Z,21.33
2019-04-11T08:05:24.955Z,20.88
2019-04-11T08:06:28.861Z,22.35
2019-04-11T08:07:49.037Z,22.25
2019-04-11T08:08:56.235Z,20.97
2019-04-11T08:09:57.161Z,23.15
2019-04-11T08:10:55.683Z,23.18
2019-04-11T08:11:52.618Z,23.40
2019-04-11T08:12:45.578Z,23.80
2019-04-11T08:13:45.633Z,24.32
2019-04-11T08:14:59.325Z,19.50
2019-04-11T08:16:08.442Z,20.40
2019-04-11T08:17:25.952Z,21.62
2019-04-11T08:18:14.688Z,22.82
2019-04-11T08:19:26.913Z,22.73
2019-04-11T08:20:35.992Z,21.85
2019-04-11T08:21:46.093Z,26.02
2019-04-11T08:22:43.252Z,21.90
2019-04-11T08:23:33.874Z,22.90
2019-04-11T08:24:30.293Z,21.50
2019-04-11T08:25:39.864Z,20.60
2019-04-11T08:26:48.647Z,21.02
2019-04-11T08:27:54.706Z,21.42
2019-04-11T08:28:37.251Z,22.77
2019-04-11T08:29:27.177Z,23.00
2019-04-11T08:30:19.064Z,22.15
2019-04-11T08:31:28.769Z,21.05
2019-04-11T08:32:40.074Z,22.73
2019-04-11T08:33:31.473Z,21.77
2019-04-11T08:34:21.926Z,22.80
2019-04-11T08:35:52.939Z,20.80
2019-04-11T08:37:00.495Z,21.05
2019-04-11T08:38:02.826Z,22.25
2019-04-11T08:38:53.036Z,19.07
2019-04-11T08:39:47.142Z,22.65
2019-04-11T08:40:47.083Z,22.22
2019-04-11T08:42:05.198Z,21.87
2019-04-11T08:43:07.157Z,23.52
2019-04-11T08:43:58.103Z,20.50
2019-04-11T08:44:48.742Z,20.92
2019-04-11T08:45:42.873Z,21.23
2019-04-11T08:46:37.286Z,21.17
2019-04-11T08:47:42.875Z,21.70
2019-04-11T08:48:23.240Z,21.45
2019-04-11T08:49:34.868Z,22.35
2019-04-11T08:50:28.382Z,21.55
2019-04-11T08:51:19.167Z,21.40
2019-04-11T08:52:16.003Z,20.55
2019-04-11T08:53:25.065Z,21.50
2019-04-11T08:54:35.520Z,22.48
2019-04-11T08:55:44.648Z,22.95
2019-04-11T08:56:23.107Z,21.20
2019-04-11T08:57:13.841Z,21.73
2019-04-11T08:58:12.554Z,20.70
2019-04-11T08:59:44.067Z,21.93
2019-04-11T09:00:58.508Z,21.90
2019-04-11T09:01:47.224Z,21.87
2019-04-11T09:02:44.975Z,20.68
2019-04-11T09:03:57.375Z,21.68
2019-04-11T09:05:15.746Z,20.02
2019-04-11T09:06:09.984Z,20.45
2019-04-11T09:07:01.142Z,22.17
2019-04-11T09:08:11.363Z,23.52
2019-04-11T09:09:20.908Z,22.75
2019-04-11T09:10:29.175Z,21.07
2019-04-11T09:11:26.547Z,21.50
2019-04-11T09:12:18.441Z,21.45
2019-04-11T09:13:21.316Z,21.23
2019-04-11T09:14:32.492Z,20.20
2019-04-11T09:15:41.901Z,21.77
2019-04-11T09:17:04.489Z,21.33
2019-04-11T09:18:05.733Z,22.10
2019-04-11T09:18:52.374Z,21.20
2019-04-11T09:20:07.475Z,23.80
2019-04-11T09:21:16.046Z,21.50
2019-04-11T09:22:26.302Z,21.15
2019-04-11T09:23:21.693Z,23.27
2019-04-11T09:24:26.269Z,21.37
2019-04-11T09:25:35.005Z,21.42
2019-04-11T09:26:44.389Z,22.25
2019-04-11T09:27:49.162Z,20.37
2019-04-11T09:28:43.923Z,22.87
2019-04-11T09:29:35.681Z,20.60
2019-04-11T09:30:45.231Z,21.10
2019-04-11T09:31:55.938Z,23.98
2019-04-11T09:33:06.714Z,23.50
2019-04-11T09:34:14.610Z,23.35
2019-04-11T09:35:12.463Z,24.00
2019-04-11T09:36:22.474Z,23.22
2019-04-11T09:37:29.420Z,24.65
2019-04-11T09:38:19.752Z,24.07
2019-04-11T09:39:32.439Z,21.80
2019-04-11T09:40:41.884Z,22.50
2019-04-11T09:42:09.981Z,22.45
2019-04-11T09:43:31.893Z,22.52
2019-04-11T09:44:23.058Z,23.60
2019-04-11T09:45:25.740Z,22.48
2019-04-11T09:46:34.502Z,22.37
2019-04-11T09:47:47.685Z,23.25
2019-04-11T09:48:58.031Z,24.43
2019-04-11T09:49:55.834Z,21.85
2019-04-11T09:51:07.854Z,23.70
2019-04-11T09:52:04.347Z,22.15
2019-04-11T09:52:54.561Z,21.50
2019-04-11T09:53:50.817Z,22.32
2019-04-11T09:54:50.515Z,22.85
2019-04-11T09:55:59.101Z,23.50
2019-04-11T09:57:18.548Z,23.90
2019-04-11T09:58:23.188Z,20.52
2019-04-11T09:59:20.724Z,23.32
2019-04-11T10:00:20.574Z,21.77
2019-04-11T10:01:28.830Z,22.40
2019-04-11T10:02:48.423Z,23.22
2019-04-11T10:03:42.946Z,20.90
2019-04-11T10:04:32.002Z,23.77
2019-04-11T10:05:26.549Z,22.07
2019-04-11T10:06:38.819Z,24.30
2019-04-11T10:07:46.275Z,26.57
2019-04-11T10:08:43.666Z,23.83
2019-04-11T10:09:52.439Z,28.35
2019-04-11T10:11:01.676Z,26.20
2019-04-11T10:12:09.598Z,25.40
2019-04-11T10:13:18.735Z,24.07
2019-04-11T10:14:15.539Z,25.17
2019-04-11T10:15:07.173Z,23.73
2019-04-11T10:16:31.998Z,23.42
2019-04-11T10:17:46.404Z,25.32
2019-04-11T10:19:01.862Z,25.72
2019-04-11T10:19:57.057Z,24.37
2019-04-11T10:20:50.860Z,24.07
2019-04-11T10:21:43.749Z,24.23
2019-04-11T10:22:52.373Z,23.67
2019-04-11T10:24:20.641Z,24.55
2019-04-11T10:25:28.880Z,25.37
2019-04-11T10:26:20.310Z,26.27
2019-04-11T10:27:40.644Z,27.07
2019-04-11T10:28:49.503Z,26.42
2019-04-11T10:29:58.867Z,23.90
2019-04-11T10:31:22.593Z,25.85
2019-04-11T10:32:14.922Z,25.77
2019-04-11T10:33:10.823Z,22.55
2019-04-11T10:34:33.528Z,25.10
2019-04-11T10:35:41.037Z,24.32
2019-04-11T10:36:49.726Z,22.93
2019-04-11T10:37:42.202Z,25.80
2019-04-11T10:38:32.898Z,24.05
2019-04-11T10:39:43.698Z,25.32
2019-04-11T10:40:54.947Z,25.57
2019-04-11T10:41:52.383Z,24.20
2019-04-11T10:42:47.561Z,24.35
2019-04-11T10:43:40.358Z,23.90
2019-04-11T10:45:00.305Z,23.73
2019-04-11T10:46:01.397Z,21.80
2019-04-11T10:47:09.974Z,24.90
2019-04-11T10:48:03.199Z,24.45
2019-04-11T10:49:03.416Z,24.10
2019-04-11T10:50:17.515Z,25.05
2019-04-11T10:51:15.230Z,24.65
2019-04-11T10:52:24.531Z,26.05
2019-04-11T10:53:16.290Z,25.25
2019-04-11T10:54:07.380Z,24.32
2019-04-11T10:55:19.757Z,22.75
2019-04-11T10:56:35.674Z,25.43
2019-04-11T10:57:44.686Z,25.62
2019-04-11T10:58:40.693Z,26.50
2019-04-11T10:59:34.367Z,24.23
2019-04-11T11:00:35.586Z,25.08
2019-04-11T11:02:02.846Z,26.85
2019-04-11T11:03:22.409Z,24.98
2019-04-11T11:04:32.523Z,23.87
2019-04-11T11:05:24.315Z,24.32
2019-04-11T11:06:17.710Z,24.85
2019-04-11T11:07:14.794Z,24.92
2019-04-11T11:08:25.860Z,22.90
2019-04-11T11:09:39.365Z,23.95
2019-04-11T11:10:33.396Z,24.98
2019-04-11T11:11:28.383Z,24.20
2019-04-11T11:12:37.144Z,24.10
2019-04-11T11:14:00.429Z,25.17
2019-04-11T11:15:11.489Z,22.70
2019-04-11T11:16:02.772Z,23.67
2019-04-11T11:17:04.527Z,24.92
2019-04-11T11:18:38.135Z,23.22
2019-04-11T11:19:48.731Z,23.57
2019-04-11T11:20:43.016Z,23.73
2019-04-11T11:21:33.823Z,25.88
2019-04-11T11:22:34.469Z,23.25
2019-04-11T11:23:41.080Z,22.90
2019-04-11T11:25:00.160Z,23.90
2019-04-11T11:26:23.310Z,24.57
2019-04-11T11:27:13.802Z,25.00
2019-04-11T11:28:05.261Z,22.75
2019-04-11T11:29:15.174Z,23.83
2019-04-11T11:30:23.090Z,23.20
2019-04-11T11:31:22.354Z,24.32
2019-04-11T11:32:35.879Z,23.05
2019-04-11T11:33:28.393Z,23.22
2019-04-11T11:34:26.196Z,25.57
2019-04-11T11:35:37.072Z,23.10
2019-04-11T11:36:47.897Z,23.00
2019-04-11T11:37:47.188Z,22.90
2019-04-11T11:38:37.737Z,23.20
2019-04-11T11:39:35.243Z,22.25
2019-04-11T11:40:44.817Z,23.50
2019-04-11T11:41:54.529Z,24.75
2019-04-11T11:43:03.144Z,24.27
2019-04-11T11:43:53.360Z,24.30
2019-04-11T11:44:55.696Z,21.87
2019-04-11T11:45:56.740Z,22.22
2019-04-11T11:47:05.228Z,23.00
2019-04-11T11:48:13.626Z,21.77
2019-04-11T11:49:29.611Z,21.75
2019-04-11T11:50:10.520Z,24.07
2019-04-11T11:51:03.388Z,21.20
2019-04-11T11:52:13.143Z,21.90
2019-04-11T11:53:35.990Z,21.80
2019-04-11T11:54:48.946Z,22.90
2019-04-11T11:55:39.557Z,21.48
2019-04-11T11:56:31.553Z,22.85
2019-04-11T11:57:35.087Z,22.95
2019-04-11T11:58:45.249Z,21.52
2019-04-11T11:59:45.819Z,20.52
2019-04-11T12:00:37.258Z,23.45
2019-04-11T12:01:29.551Z,23.55
2019-04-11T12:02:26.977Z,22.40
2019-04-11T12:03:37.135Z,25.10
2019-04-11T12:04:46.473Z,22.93
2019-04-11T12:05:50.851Z,21.85
2019-04-11T12:06:40.914Z,23.80
2019-04-11T12:07:43.068Z,23.25
2019-04-11T12:08:49.761Z,23.20
2019-04-11T12:10:13.732Z,21.65
2019-04-11T12:11:08.107Z,22.37
2019-04-11T12:12:02.907Z,22.35
2019-04-11T12:13:08.539Z,23.55
2019-04-11T12:14:22.364Z,22.07
2019-04-11T12:15:30.220Z,22.73
2019-04-11T12:16:25.832Z,20.92
2019-04-11T12:17:40.589Z,23.18
2019-04-11T12:19:04.620Z,22.05
2019-04-11T12:20:06.407Z,22.30
2019-04-11T12:20:59.040Z,23.00